Randy J. Trosclair — WDG2643 — position and weather

sailwx.info

Track history (hours):
 
Tides and Currents Weather Stations Pressure Air Temp Water Temp Dewpoint Dewpoint Depression Visibility Wind Speed Wind Dir Waves Ship Positions

Randy J. Trosclair

Owner: Florida Marine, LLC, Mandeville, LA. More information available from US FCC via Universal Licensing System and Coast Guard Vessel Documentation Center.

Last reported at 2017-Nov-05 17:34 UTC. Time now 2017-Nov-18 04:38 UTC.
Position N 29°50' W 091°57'.
Warning: this ship's position is 12 days out of date.

Length 27 m; draft 2.9 m.

Type: Other ship. MMSI: 367517730.

Date/timePositionNaut miles runAvg speedWind from/ knotsBaromVisibWave heightAir tempDewpointWater temp
2017-Nov-05 17:34N 29°50' W 091°57'0 6.4
2017-Nov-05 17:30N 29°50' W 091°58'3 6.7
2017-Nov-05 17:00N 29°49' W 092°02'3 6.4
2017-Nov-05 16:30N 29°48' W 092°05'3 5.8
2017-Nov-05 16:00N 29°47' W 092°08'2 4.7
2017-Nov-05 15:30N 29°47' W 092°11'3 5.1
2017-Nov-05 15:00N 29°48' W 092°13'1 2.1
2017-Nov-05 14:30N 29°48' W 092°15'1 2.7
2017-Nov-05 14:00N 29°49' W 092°16'0 0.1
2017-Nov-05 13:30N 29°49' W 092°16'2 3.6
2017-Nov-05 13:00N 29°50' W 092°18'2 4.7
2017-Nov-05 12:30N 29°51' W 092°20'37 5.5
2017-Nov-05 05:50N 29°56' W 093°02'2 5.8
2017-Nov-05 05:30N 29°56' W 093°04'3 5.6
2017-Nov-05 05:00N 29°56' W 093°08'3 5.3
2017-Nov-05 04:30N 29°57' W 093°10'3 5.9
2017-Nov-05 04:00N 29°59' W 093°13'3 5.6
2017-Nov-05 03:30N 30°02' W 093°14'0 0.8
2017-Nov-05 03:00N 30°02' W 093°15'2 4.4
2017-Nov-05 02:30N 30°04' W 093°16'2 4.3
2017-Nov-05 02:00N 30°05' W 093°18'1 1.8
2017-Nov-05 01:30N 30°06' W 093°18'0 0.1
2017-Nov-05 01:00N 30°06' W 093°18'0 0.0
2017-Nov-05 00:30N 30°06' W 093°18'0 0.0
2017-Nov-05 00:00N 30°06' W 093°18'0 0.0
2017-Nov-04 23:30N 30°06' W 093°18'2 5.0
2017-Nov-04 23:00N 30°04' W 093°20'2 3.4
2017-Nov-04 22:30N 30°04' W 093°22'0 0.1
2017-Nov-04 22:00N 30°04' W 093°22'1 2.0
2017-Nov-04 21:30N 30°04' W 093°23'2 4.0
2017-Nov-04 21:00N 30°04' W 093°25'2 4.3
2017-Nov-04 20:30N 30°04' W 093°28'3 5.5
2017-Nov-04 20:00N 30°04' W 093°31'  
2017-Oct-29 09:35N 29°31' W 094°53'1 8.8
2017-Oct-29 09:30N 29°32' W 094°54'5 9.0
2017-Oct-29 09:00N 29°36' W 094°56'5 9.6
2017-Oct-29 08:30N 29°40' W 094°59'5 8.9
2017-Oct-29 07:59N 29°44' W 095°02'4 6.3
2017-Oct-29 07:21N 29°45' W 095°06'2 0.1
2017-Oct-28 15:04N 29°46' W 095°05'1 0.1
2017-Oct-27 14:28N 29°47' W 095°04'2 3.3
2017-Oct-27 13:52N 29°46' W 095°05'1 0.8
2017-Oct-27 12:13N 29°45' W 095°04'3 0.2
2017-Oct-26 23:24N 29°44' W 095°01'  
Track history (hours):
 
Tides and Currents Weather Stations Pressure Air Temp Water Temp Dewpoint Dewpoint Depression Visibility Wind Speed Wind Dir Waves Ship Positions

Randy J. Trosclair

Owner: Florida Marine, LLC, Mandeville, LA. More information available from US FCC via Universal Licensing System and Coast Guard Vessel Documentation Center.

Last reported at 2017-Nov-05 17:34 UTC. Time now 2017-Nov-18 04:38 UTC.
Position N 29°50' W 091°57'.
Warning: this ship's position is 12 days out of date.

Length 27 m; draft 2.9 m.

Type: Other ship. MMSI: 367517730.

Date/timePositionNaut miles runAvg speedWind from/ knotsBaromVisibWave heightAir tempDewpointWater temp
2017-Nov-05 17:34N 29°50' W 091°57'0 6.4
2017-Nov-05 17:30N 29°50' W 091°58'3 6.7
2017-Nov-05 17:00N 29°49' W 092°02'3 6.4
2017-Nov-05 16:30N 29°48' W 092°05'3 5.8
2017-Nov-05 16:00N 29°47' W 092°08'2 4.7
2017-Nov-05 15:30N 29°47' W 092°11'3 5.1
2017-Nov-05 15:00N 29°48' W 092°13'1 2.1
2017-Nov-05 14:30N 29°48' W 092°15'1 2.7
2017-Nov-05 14:00N 29°49' W 092°16'0 0.1
2017-Nov-05 13:30N 29°49' W 092°16'2 3.6
2017-Nov-05 13:00N 29°50' W 092°18'2 4.7
2017-Nov-05 12:30N 29°51' W 092°20'37 5.5
2017-Nov-05 05:50N 29°56' W 093°02'2 5.8
2017-Nov-05 05:30N 29°56' W 093°04'3 5.6
2017-Nov-05 05:00N 29°56' W 093°08'3 5.3
2017-Nov-05 04:30N 29°57' W 093°10'3 5.9
2017-Nov-05 04:00N 29°59' W 093°13'3 5.6
2017-Nov-05 03:30N 30°02' W 093°14'0 0.8
2017-Nov-05 03:00N 30°02' W 093°15'2 4.4
2017-Nov-05 02:30N 30°04' W 093°16'2 4.3
2017-Nov-05 02:00N 30°05' W 093°18'1 1.8
2017-Nov-05 01:30N 30°06' W 093°18'0 0.1
2017-Nov-05 01:00N 30°06' W 093°18'0 0.0
2017-Nov-05 00:30N 30°06' W 093°18'0 0.0
2017-Nov-05 00:00N 30°06' W 093°18'0 0.0
2017-Nov-04 23:30N 30°06' W 093°18'2 5.0
2017-Nov-04 23:00N 30°04' W 093°20'2 3.4
2017-Nov-04 22:30N 30°04' W 093°22'0 0.1
2017-Nov-04 22:00N 30°04' W 093°22'1 2.0
2017-Nov-04 21:30N 30°04' W 093°23'2 4.0
2017-Nov-04 21:00N 30°04' W 093°25'2 4.3
2017-Nov-04 20:30N 30°04' W 093°28'3 5.5
2017-Nov-04 20:00N 30°04' W 093°31'  
2017-Oct-29 09:35N 29°31' W 094°53'1 8.8
2017-Oct-29 09:30N 29°32' W 094°54'5 9.0
2017-Oct-29 09:00N 29°36' W 094°56'5 9.6
2017-Oct-29 08:30N 29°40' W 094°59'5 8.9
2017-Oct-29 07:59N 29°44' W 095°02'4 6.3
2017-Oct-29 07:21N 29°45' W 095°06'2 0.1
2017-Oct-28 15:04N 29°46' W 095°05'1 0.1
2017-Oct-27 14:28N 29°47' W 095°04'2 3.3
2017-Oct-27 13:52N 29°46' W 095°05'1 0.8
2017-Oct-27 12:13N 29°45' W 095°04'3 0.2
2017-Oct-26 23:24N 29°44' W 095°01'  

Dump ship's entire track history